Hopkins, Missouri
Current Conditions -  °F | °C
As of 2:55 AM on Friday 24 Oct 2014 (Local Time) from KICL Reporting Station
Moderate Fog Moderate Fog  
Wind Chill: 57°   Ceiling: 200
Heat Index: 57°   Visibility: 0mi
Dew Point: 57°   Wind: 6mph
Humidity: 100%   Direction: 180°S
Pressure: 30.04"   Gusts: NA
Location:  40.55°N, 94.82°W
Report Text: KICL 240755Z AUTO 18005KT M1/4SM FG OVC002 14/14 A3004 RMK AO2
Loading
Personal Weather Stations






























Interactive Weather Map
Tropical Storm Tracking
New forecast layout! Learn more

10-Day Weather Forecast

Advertisements
Track Severe Weather on mobile